createdAt,value
2023-05-04T00:00:23.480Z,28.5000
2023-05-04T00:01:25.813Z,28.4000
2023-05-04T00:02:28.286Z,30.3923
2023-05-04T00:03:30.700Z,27.2917
2023-05-04T00:04:32.893Z,29.0083
2023-05-04T00:05:35.226Z,28.5231
2023-05-04T00:06:37.563Z,28.0462
2023-05-04T00:07:39.934Z,30.6333
2023-05-04T00:08:42.241Z,29.2462
2023-05-04T00:09:44.586Z,30.5077
2023-05-04T00:10:46.882Z,29.0692
2023-05-04T00:11:49.253Z,28.7000
2023-05-04T00:12:51.579Z,29.9769
2023-05-04T00:13:53.901Z,28.0462
2023-05-04T00:14:56.292Z,29.3538
2023-05-04T00:15:58.621Z,31.6462
2023-05-04T00:17:00.949Z,31.7462
2023-05-04T00:18:03.263Z,28.7769
2023-05-04T00:19:05.637Z,30.9154
2023-05-04T00:20:07.975Z,29.7615
2023-05-04T00:21:10.438Z,30.2769
2023-05-04T00:22:12.652Z,29.3385
2023-05-04T00:23:14.989Z,28.3769
2023-05-04T00:24:17.355Z,28.6923
2023-05-04T00:25:19.635Z,29.5923
2023-05-04T00:26:22.012Z,30.4538
2023-05-04T00:27:24.311Z,27.8154
2023-05-04T00:28:26.659Z,29.2154
2023-05-04T00:29:29.021Z,28.7231
2023-05-04T00:30:31.338Z,29.7000
2023-05-04T00:31:33.768Z,28.4231
2023-05-04T00:32:36.071Z,28.2462
2023-05-04T00:33:38.394Z,28.0385
2023-05-04T00:34:40.898Z,28.3077
2023-05-04T00:35:43.047Z,28.2000
2023-05-04T00:36:45.394Z,27.4154
2023-05-04T00:37:47.722Z,27.1000
2023-05-04T00:38:50.083Z,26.6231
2023-05-04T00:39:52.430Z,27.3462
2023-05-04T00:40:54.804Z,26.8923
2023-05-04T00:41:57.081Z,26.7538
2023-05-04T00:42:59.427Z,26.5077
2023-05-04T00:44:01.760Z,26.9769
2023-05-04T00:45:04.151Z,26.2692
2023-05-04T00:46:06.453Z,26.5462
2023-05-04T00:47:08.869Z,27.5231
2023-05-04T00:48:11.224Z,29.6846
2023-05-04T00:49:13.519Z,29.8154
2023-05-04T00:50:15.883Z,28.9615
2023-05-04T00:51:18.183Z,29.2308
2023-05-04T00:52:20.494Z,29.8077
2023-05-04T00:53:22.863Z,29.7231
2023-05-04T00:54:25.162Z,31.1462
2023-05-04T00:55:27.547Z,28.8692
2023-05-04T00:56:29.836Z,28.8231
2023-05-04T00:57:32.186Z,28.7538
2023-05-04T00:58:34.583Z,28.5692
2023-05-04T00:59:36.917Z,27.9231
2023-05-04T01:00:39.252Z,27.5154
2023-05-04T01:01:41.595Z,27.5923
2023-05-04T01:02:43.901Z,28.0769
2023-05-04T01:03:46.295Z,28.6692
2023-05-04T01:04:48.660Z,28.7846
2023-05-04T01:05:50.885Z,28.1077
2023-05-04T01:06:53.223Z,28.1077
2023-05-04T01:07:55.621Z,27.6154
2023-05-04T01:08:57.933Z,27.1385
2023-05-04T01:10:00.262Z,27.4769
2023-05-04T01:11:02.611Z,27.9692
2023-05-04T01:12:04.956Z,27.5462
2023-05-04T01:13:07.324Z,27.2077
2023-05-04T01:14:09.619Z,26.5538
2023-05-04T01:15:11.936Z,27.5077
2023-05-04T01:16:14.343Z,27.1077
2023-05-04T01:17:16.636Z,27.2231
2023-05-04T01:18:18.973Z,27.3615
2023-05-04T01:19:21.277Z,27.1308
2023-05-04T01:20:23.642Z,28.2462
2023-05-04T01:21:25.934Z,26.9077
2023-05-04T01:22:28.306Z,28.7077
2023-05-04T01:23:30.645Z,29.2231
2023-05-04T01:24:32.949Z,28.5615
2023-05-04T01:25:35.331Z,27.6231
2023-05-04T01:26:37.611Z,28.3615
2023-05-04T01:27:39.985Z,27.8077
2023-05-04T01:28:42.274Z,25.5846
2023-05-04T01:29:44.618Z,28.4538
2023-05-04T01:30:47.039Z,27.6462
2023-05-04T01:31:49.321Z,27.9154
2023-05-04T01:32:51.686Z,27.7154
2023-05-04T01:33:53.959Z,26.7769
2023-05-04T01:34:56.316Z,27.2769
2023-05-04T01:35:58.686Z,28.4692
2023-05-04T01:37:00.988Z,27.2308
2023-05-04T01:38:03.330Z,27.8923
2023-05-04T01:39:05.712Z,28.9308
2023-05-04T01:40:07.996Z,27.3923
2023-05-04T01:41:10.347Z,28.0154
2023-05-04T01:42:12.659Z,27.7077
2023-05-04T01:43:15.033Z,26.5308
2023-05-04T01:44:17.367Z,27.4615
2023-05-04T01:45:19.675Z,26.4769
2023-05-04T01:46:22.058Z,26.7385
2023-05-04T01:47:24.376Z,27.0462
2023-05-04T01:48:28.281Z,26.6000
2023-05-04T01:49:29.015Z,26.4500
2023-05-04T01:50:31.354Z,26.7417
2023-05-04T01:51:33.725Z,26.2615
2023-05-04T01:52:36.024Z,27.1077
2023-05-04T01:53:38.365Z,26.4846
2023-05-04T01:54:40.741Z,25.4923
2023-05-04T01:55:43.077Z,26.2846
2023-05-04T01:56:45.420Z,27.5923
2023-05-04T01:57:47.740Z,26.5154
2023-05-04T01:58:50.049Z,27.5154
2023-05-04T01:59:52.419Z,27.9846
2023-05-04T02:00:54.725Z,28.0385
2023-05-04T02:01:57.119Z,26.2923
2023-05-04T02:02:59.550Z,26.4308
2023-05-04T02:04:01.960Z,26.5917
2023-05-04T02:05:04.102Z,27.1583
2023-05-04T02:06:06.412Z,28.9615
2023-05-04T02:07:08.763Z,27.7615
2023-05-04T02:08:11.073Z,26.5385
2023-05-04T02:09:13.412Z,26.0538
2023-05-04T02:10:15.780Z,27.5846
2023-05-04T02:11:18.124Z,24.2615
2023-05-04T02:12:20.424Z,26.4615
2023-05-04T02:13:22.748Z,26.5308
2023-05-04T02:14:25.137Z,26.3846
2023-05-04T02:15:27.465Z,26.2154
2023-05-04T02:16:29.823Z,27.1077
2023-05-04T02:17:32.160Z,27.5846
2023-05-04T02:18:34.425Z,25.7077
2023-05-04T02:19:36.770Z,26.4923
2023-05-04T02:20:39.089Z,26.5615
2023-05-04T02:21:41.446Z,26.6308
2023-05-04T02:22:43.807Z,26.5308
2023-05-04T02:23:46.149Z,26.7462
2023-05-04T02:24:48.498Z,28.1538
2023-05-04T02:25:50.887Z,27.1231
2023-05-04T02:26:53.155Z,26.8538
2023-05-04T02:27:55.454Z,25.8846
2023-05-04T02:28:57.830Z,25.9538
2023-05-04T02:30:00.203Z,27.7846
2023-05-04T02:31:02.447Z,27.1538
2023-05-04T02:32:04.867Z,24.9769
2023-05-04T02:33:07.188Z,24.3000
2023-05-04T02:34:09.499Z,25.3846
2023-05-04T02:35:11.839Z,25.5462
2023-05-04T02:36:14.192Z,26.1308
2023-05-04T02:37:16.506Z,24.6308
2023-05-04T02:38:18.810Z,23.5923
2023-05-04T02:39:21.150Z,25.4769
2023-05-04T02:40:23.545Z,25.1462
2023-05-04T02:41:25.876Z,24.2385
2023-05-04T02:42:28.244Z,26.3077
2023-05-04T02:43:30.506Z,27.6308
2023-05-04T02:44:32.876Z,25.7077
2023-05-04T02:45:35.209Z,25.5692
2023-05-04T02:46:37.527Z,26.2154
2023-05-04T02:47:39.901Z,25.2923
2023-05-04T02:48:42.194Z,27.2923
2023-05-04T02:49:44.552Z,25.9462
2023-05-04T02:50:46.901Z,25.6769
2023-05-04T02:51:49.225Z,25.6385
2023-05-04T02:52:51.594Z,25.2692
2023-05-04T02:53:53.938Z,26.4308
2023-05-04T02:54:56.235Z,25.9385
2023-05-04T02:55:58.575Z,25.2923
2023-05-04T02:57:01.061Z,24.5385
2023-05-04T02:58:03.291Z,26.7923
2023-05-04T02:59:05.628Z,25.5231
2023-05-04T03:00:08.009Z,25.1308
2023-05-04T03:01:10.314Z,26.0000
2023-05-04T03:02:12.629Z,25.8538
2023-05-04T03:03:14.972Z,26.3615
2023-05-04T03:04:17.342Z,25.9538
2023-05-04T03:05:19.604Z,25.7615
2023-05-04T03:06:21.977Z,24.3538
2023-05-04T03:07:24.342Z,26.1846
2023-05-04T03:08:26.702Z,25.5846
2023-05-04T03:09:28.958Z,24.7385
2023-05-04T03:10:31.310Z,25.7231
2023-05-04T03:11:33.649Z,26.2615
2023-05-04T03:12:36.084Z,26.4462
2023-05-04T03:13:38.362Z,25.6231
2023-05-04T03:14:40.656Z,25.4846
2023-05-04T03:15:43.028Z,24.6538
2023-05-04T03:16:45.442Z,25.5154
2023-05-04T03:17:47.711Z,26.0462
2023-05-04T03:18:50.291Z,24.9846
2023-05-04T03:19:52.352Z,23.9000
2023-05-04T03:20:54.716Z,24.7000
2023-05-04T03:21:57.058Z,24.8692
2023-05-04T03:22:59.371Z,24.4000
2023-05-04T03:24:01.701Z,23.4769
2023-05-04T03:25:04.110Z,23.4154
2023-05-04T03:26:06.408Z,24.5154
2023-05-04T03:27:08.745Z,25.6615
2023-05-04T03:28:11.057Z,25.2385
2023-05-04T03:29:13.402Z,24.7923
2023-05-04T03:30:15.731Z,25.1231
2023-05-04T03:31:18.091Z,24.8538
2023-05-04T03:32:20.390Z,26.0077
2023-05-04T03:33:22.777Z,24.8769
2023-05-04T03:34:25.085Z,25.1615
2023-05-04T03:35:27.450Z,24.4769
2023-05-04T03:36:29.772Z,23.6538
2023-05-04T03:37:32.122Z,23.8231
2023-05-04T03:38:34.454Z,24.7462
2023-05-04T03:39:36.798Z,24.2846
2023-05-04T03:40:39.128Z,23.4000
2023-05-04T03:41:41.421Z,24.9769
2023-05-04T03:42:43.806Z,24.8308
2023-05-04T03:43:46.102Z,24.7462
2023-05-04T03:44:48.466Z,24.7077
2023-05-04T03:45:50.831Z,24.0923
2023-05-04T03:46:53.147Z,22.8077
2023-05-04T03:47:55.459Z,23.8231
2023-05-04T03:48:57.790Z,23.5538
2023-05-04T03:50:00.176Z,23.2923
2023-05-04T03:51:02.490Z,23.1769
2023-05-04T03:52:04.834Z,22.9000
2023-05-04T03:53:07.148Z,23.9462
2023-05-04T03:54:09.493Z,24.4385
2023-05-04T03:55:11.805Z,25.3154
2023-05-04T03:56:14.146Z,24.3077
2023-05-04T03:57:16.495Z,23.1692
2023-05-04T03:58:18.831Z,23.4154
2023-05-04T03:59:21.172Z,24.6692
2023-05-04T04:00:23.503Z,24.0154
2023-05-04T04:01:25.842Z,24.2231
2023-05-04T04:02:28.222Z,23.6846
2023-05-04T04:03:30.648Z,21.7077
2023-05-04T04:04:32.865Z,24.0500
2023-05-04T04:05:35.155Z,24.4923
2023-05-04T04:06:37.541Z,25.0692
2023-05-04T04:07:39.830Z,23.9462
2023-05-04T04:08:42.257Z,24.2769
2023-05-04T04:09:44.559Z,24.2846
2023-05-04T04:10:46.903Z,23.8385
2023-05-04T04:11:49.271Z,24.5923
2023-05-04T04:12:51.616Z,25.0385
2023-05-04T04:13:53.941Z,25.2000
2023-05-04T04:14:56.259Z,25.0231
2023-05-04T04:15:58.640Z,24.3231
2023-05-04T04:17:00.927Z,23.8231
2023-05-04T04:18:03.345Z,25.1923
2023-05-04T04:19:05.602Z,24.7846
2023-05-04T04:20:08.118Z,23.6231
2023-05-04T04:21:10.249Z,23.8417
2023-05-04T04:22:12.632Z,25.9077
2023-05-04T04:23:14.928Z,25.6615
2023-05-04T04:24:17.294Z,24.6154
2023-05-04T04:25:19.637Z,24.5308
2023-05-04T04:26:21.940Z,23.6308
2023-05-04T04:27:24.305Z,23.3077
2023-05-04T04:28:26.661Z,24.5308
2023-05-04T04:29:28.937Z,24.3231
2023-05-04T04:30:31.309Z,24.5692
2023-05-04T04:31:33.654Z,25.1154
2023-05-04T04:32:36.051Z,25.0000
2023-05-04T04:33:38.284Z,25.9833
2023-05-04T04:34:40.617Z,26.2308
2023-05-04T04:35:42.954Z,25.8846
2023-05-04T04:36:45.289Z,25.4231
2023-05-04T04:37:47.671Z,24.1692
2023-05-04T04:38:49.973Z,24.6923
2023-05-04T04:39:52.305Z,25.2462
2023-05-04T04:40:54.673Z,26.0083
2023-05-04T04:41:56.973Z,24.9000
2023-05-04T04:42:59.341Z,24.1769
2023-05-04T04:44:01.688Z,25.4692
2023-05-04T04:45:03.961Z,24.8000
2023-05-04T04:46:06.407Z,25.7077
2023-05-04T04:47:08.665Z,25.6308
2023-05-04T04:48:11.162Z,25.3769
2023-05-04T04:49:13.334Z,26.4250
2023-05-04T04:50:15.609Z,25.5154
2023-05-04T04:51:17.986Z,25.3000
2023-05-04T04:52:20.283Z,25.9615
2023-05-04T04:53:22.642Z,25.4846
2023-05-04T04:54:24.986Z,23.4923
2023-05-04T04:55:27.324Z,25.0692
2023-05-04T04:56:29.648Z,25.3923
2023-05-04T04:57:32.046Z,25.1846
2023-05-04T04:58:34.323Z,24.9500
2023-05-04T04:59:36.650Z,24.9385
2023-05-04T05:00:39.025Z,24.6692
2023-05-04T05:01:41.314Z,25.3846
2023-05-04T05:02:43.682Z,24.4385
2023-05-04T05:03:45.990Z,25.7769
2023-05-04T05:04:48.366Z,25.3231
2023-05-04T05:05:50.636Z,26.0692
2023-05-04T05:06:52.966Z,25.7077
2023-05-04T05:07:55.259Z,26.1615
2023-05-04T05:08:57.626Z,25.8923
2023-05-04T05:09:59.942Z,26.4769
2023-05-04T05:11:02.299Z,27.1538
2023-05-04T05:12:04.655Z,28.8000
2023-05-04T05:13:07.029Z,27.9077
2023-05-04T05:14:09.283Z,28.2000
2023-05-04T05:15:11.628Z,29.2000
2023-05-04T05:16:13.984Z,29.4923
2023-05-04T05:17:16.418Z,30.7231
2023-05-04T05:18:18.637Z,29.3167
2023-05-04T05:19:20.935Z,31.2308
2023-05-04T05:20:23.329Z,31.7769
2023-05-04T05:21:25.579Z,33.1846
2023-05-04T05:22:27.963Z,32.1308
2023-05-04T05:23:30.253Z,32.6077
2023-05-04T05:24:32.592Z,32.0846
2023-05-04T05:25:34.921Z,32.2231
2023-05-04T05:26:37.307Z,32.5000
2023-05-04T05:27:39.636Z,33.0462
2023-05-04T05:28:41.928Z,33.5154
2023-05-04T05:29:44.261Z,32.3231
2023-05-04T05:30:46.608Z,33.0615
2023-05-04T05:31:48.966Z,35.4308
2023-05-04T05:32:51.315Z,36.8769
2023-05-04T05:33:53.601Z,37.9923
2023-05-04T05:34:55.916Z,36.4385
2023-05-04T05:35:58.299Z,34.8231
2023-05-04T05:37:00.603Z,35.9231
2023-05-04T05:38:02.933Z,34.0769
2023-05-04T05:39:05.300Z,33.9923
2023-05-04T05:40:07.835Z,37.3615
2023-05-04T05:41:10.052Z,38.2500
2023-05-04T05:42:12.259Z,37.9077
2023-05-04T05:43:14.636Z,37.6846
2023-05-04T05:44:16.928Z,38.4846
2023-05-04T05:45:19.276Z,36.7077
2023-05-04T05:46:21.629Z,36.9462
2023-05-04T05:47:23.952Z,37.5231
2023-05-04T05:48:26.251Z,37.1462
2023-05-04T05:49:28.596Z,37.6923
2023-05-04T05:50:30.935Z,38.7308
2023-05-04T05:51:33.287Z,37.7231
2023-05-04T05:52:35.622Z,39.4077
2023-05-04T05:53:37.959Z,41.1308
2023-05-04T05:54:40.265Z,39.4846
2023-05-04T05:55:42.582Z,39.8385
2023-05-04T05:56:44.950Z,39.2923
2023-05-04T05:57:47.273Z,39.7462
2023-05-04T05:58:49.592Z,39.1538
2023-05-04T05:59:51.941Z,40.5000
2023-05-04T06:00:54.301Z,39.7000
2023-05-04T06:01:56.633Z,41.4308
2023-05-04T06:02:59.017Z,39.5846
2023-05-04T06:04:01.459Z,41.0385
2023-05-04T06:05:03.842Z,38.2083
2023-05-04T06:06:05.992Z,40.7167
2023-05-04T06:07:08.290Z,38.9615
2023-05-04T06:08:10.606Z,37.6231
2023-05-04T06:09:12.954Z,40.3308
2023-05-04T06:10:15.296Z,41.2000
2023-05-04T06:11:17.653Z,40.6077
2023-05-04T06:12:19.969Z,40.3923
2023-05-04T06:13:22.274Z,39.6077
2023-05-04T06:14:24.622Z,38.1615
2023-05-04T06:15:26.967Z,41.0462
2023-05-04T06:16:29.394Z,41.1000
2023-05-04T06:17:31.775Z,40.4538
2023-05-04T06:18:33.970Z,40.9250
2023-05-04T06:19:36.320Z,37.4923
2023-05-04T06:20:38.661Z,37.7692
2023-05-04T06:21:40.980Z,40.0000
2023-05-04T06:22:43.302Z,42.0231
2023-05-04T06:23:45.633Z,40.3308
2023-05-04T06:24:47.998Z,39.0462
2023-05-04T06:25:50.346Z,38.5615
2023-05-04T06:26:52.645Z,39.6231
2023-05-04T06:27:54.992Z,39.3231
2023-05-04T06:28:57.370Z,41.3308
2023-05-04T06:29:59.651Z,40.8077
2023-05-04T06:31:02.001Z,41.2923
2023-05-04T06:32:04.381Z,41.4000
2023-05-04T06:33:06.721Z,39.9462
2023-05-04T06:34:09.043Z,40.3462
2023-05-04T06:35:11.370Z,38.5769
2023-05-04T06:36:13.694Z,39.3615
2023-05-04T06:37:16.201Z,39.0231
2023-05-04T06:38:18.410Z,40.2500
2023-05-04T06:39:20.665Z,41.0769
2023-05-04T06:40:23.050Z,40.4385
2023-05-04T06:41:25.358Z,41.2154
2023-05-04T06:42:27.659Z,41.1077
2023-05-04T06:43:30.045Z,40.5538
2023-05-04T06:44:32.332Z,38.6385
2023-05-04T06:45:34.688Z,40.0077
2023-05-04T06:46:36.970Z,41.4077
2023-05-04T06:47:39.384Z,40.2769
2023-05-04T06:48:41.672Z,39.7615
2023-05-04T06:49:43.991Z,37.6615
2023-05-04T06:50:46.336Z,39.0385
2023-05-04T06:51:48.671Z,37.8308
2023-05-04T06:52:50.987Z,38.2000
2023-05-04T06:53:53.334Z,39.4077
2023-05-04T06:54:55.666Z,39.3923
2023-05-04T06:55:57.999Z,36.8615
2023-05-04T06:57:00.345Z,38.1615
2023-05-04T06:58:02.733Z,38.1231
2023-05-04T06:59:04.999Z,36.6923
2023-05-04T07:00:07.517Z,37.0692
2023-05-04T07:01:09.719Z,40.1000
2023-05-04T07:02:12.038Z,39.3923
2023-05-04T07:03:14.371Z,40.5692
2023-05-04T07:04:16.659Z,41.1154
2023-05-04T07:05:19.014Z,38.4923
2023-05-04T07:06:21.359Z,38.1385
2023-05-04T07:07:23.688Z,39.8000
2023-05-04T07:08:26.074Z,39.1833
2023-05-04T07:09:28.381Z,40.1308
2023-05-04T07:10:30.695Z,39.2923
2023-05-04T07:11:33.038Z,39.5538
2023-05-04T07:12:35.374Z,38.2462
2023-05-04T07:13:37.748Z,37.2000
2023-05-04T07:14:40.064Z,38.5692
2023-05-04T07:15:42.423Z,37.2538
2023-05-04T07:16:44.794Z,39.7333
2023-05-04T07:17:47.129Z,36.9154
2023-05-04T07:18:49.483Z,37.3538
2023-05-04T07:19:51.741Z,39.4385
2023-05-04T07:21:01.554Z,39.5077
2023-05-04T07:21:56.481Z,39.7455
2023-05-04T07:22:58.725Z,37.6231
2023-05-04T07:24:01.137Z,38.6385
2023-05-04T07:25:03.428Z,40.1385
2023-05-04T07:26:05.768Z,39.0385
2023-05-04T07:27:08.146Z,36.7615
2023-05-04T07:28:10.478Z,38.8154
2023-05-04T07:29:12.841Z,38.2077
2023-05-04T07:30:15.156Z,39.0308
2023-05-04T07:31:17.442Z,38.4385
2023-05-04T07:32:19.944Z,37.7923
2023-05-04T07:33:22.186Z,36.8500
2023-05-04T07:34:30.927Z,37.4538
2023-05-04T07:35:26.797Z,36.8636
2023-05-04T07:36:29.190Z,38.1769
2023-05-04T07:37:31.531Z,36.9923
2023-05-04T07:38:33.810Z,37.2769
2023-05-04T07:39:36.167Z,37.5231
2023-05-04T07:40:38.549Z,37.7769
2023-05-04T07:41:40.824Z,38.9231
2023-05-04T07:42:43.232Z,38.1615
2023-05-04T07:43:45.501Z,36.3077
2023-05-04T07:44:47.903Z,33.7692
2023-05-04T07:45:50.232Z,34.4462
2023-05-04T07:46:52.549Z,34.6846
2023-05-04T07:47:54.951Z,33.1769
2023-05-04T07:48:57.250Z,33.4231
2023-05-04T07:49:59.602Z,33.5538
2023-05-04T07:51:01.930Z,33.5462
2023-05-04T07:52:04.238Z,33.4231
2023-05-04T07:53:06.614Z,33.3308
2023-05-04T07:54:08.905Z,33.6462
2023-05-04T07:55:11.280Z,34.4000
2023-05-04T07:56:13.604Z,32.9000
2023-05-04T07:57:15.929Z,31.4154
2023-05-04T07:58:18.286Z,31.2538
2023-05-04T07:59:20.617Z,31.0846
2023-05-04T08:00:22.927Z,30.5923
2023-05-04T08:01:25.291Z,30.3615
2023-05-04T08:02:27.701Z,27.7769
2023-05-04T08:03:30.007Z,27.2231
2023-05-04T08:04:32.289Z,25.8231
2023-05-04T08:05:34.633Z,25.7308
2023-05-04T08:06:36.962Z,23.0462
2023-05-04T08:07:39.312Z,20.3385
2023-05-04T08:08:41.698Z,16.8923
2023-05-04T08:09:43.993Z,16.8231
2023-05-04T08:10:46.361Z,16.1462
2023-05-04T08:11:48.719Z,12.3923
2023-05-04T08:12:51.048Z,11.2000
2023-05-04T08:13:53.438Z,10.2077
2023-05-04T08:14:55.755Z,10.3923
2023-05-04T08:15:58.101Z,10.4077
2023-05-04T08:17:00.430Z,10.3769
2023-05-04T08:18:02.882Z,11.1385
2023-05-04T08:19:05.144Z,11.1154
2023-05-04T08:20:07.508Z,10.5846
2023-05-04T08:21:09.846Z,11.1692
2023-05-04T08:22:12.157Z,10.1308
2023-05-04T08:23:14.479Z,9.5154
2023-05-04T08:24:16.842Z,10.0538
2023-05-04T08:25:19.162Z,9.6231
2023-05-04T08:26:21.510Z,10.0308
2023-05-04T08:27:23.871Z,7.9769
2023-05-04T08:28:26.205Z,7.4769
2023-05-04T08:29:28.556Z,7.9000
2023-05-04T08:30:30.894Z,8.1846
2023-05-04T08:31:33.249Z,7.2769
2023-05-04T08:32:35.588Z,8.0769
2023-05-04T08:33:37.937Z,7.9846
2023-05-04T08:34:40.287Z,8.1231
2023-05-04T08:35:42.611Z,8.5154
2023-05-04T08:36:44.962Z,9.5154
2023-05-04T08:37:47.310Z,8.6692
2023-05-04T08:38:49.640Z,8.0000
2023-05-04T08:39:52.052Z,8.7462
2023-05-04T08:40:54.365Z,8.6250
2023-05-04T08:41:56.664Z,9.2692
2023-05-04T08:42:59.014Z,8.2615
2023-05-04T08:44:01.358Z,8.3385
2023-05-04T08:45:03.899Z,8.3000
2023-05-04T08:46:06.122Z,9.1583
2023-05-04T08:47:08.398Z,8.0231
2023-05-04T08:48:10.742Z,9.6615
2023-05-04T08:49:13.095Z,8.8308
2023-05-04T08:50:15.452Z,9.2154
2023-05-04T08:51:17.806Z,8.8308
2023-05-04T08:52:20.118Z,9.4846
2023-05-04T08:53:22.465Z,9.2308
2023-05-04T08:54:24.854Z,8.9077
2023-05-04T08:55:27.191Z,9.8692
2023-05-04T08:56:29.505Z,10.1385
2023-05-04T08:57:31.853Z,8.8462
2023-05-04T08:58:34.238Z,8.9000
2023-05-04T08:59:36.547Z,9.8692
2023-05-04T09:00:38.937Z,10.1692
2023-05-04T09:01:41.268Z,9.6923
2023-05-04T09:02:43.642Z,9.6769
2023-05-04T09:03:46.090Z,10.8846
2023-05-04T09:04:48.305Z,9.2667
2023-05-04T09:05:50.601Z,9.4769
2023-05-04T09:06:52.951Z,9.6231
2023-05-04T09:07:55.303Z,10.5231
2023-05-04T09:08:57.703Z,10.4308
2023-05-04T09:10:00.042Z,11.0308
2023-05-04T09:11:02.377Z,10.4538
2023-05-04T09:12:04.707Z,10.3000
2023-05-04T09:13:07.090Z,11.0538
2023-05-04T09:14:09.419Z,9.8615
2023-05-04T09:15:11.759Z,11.0231
2023-05-04T09:16:14.909Z,12.0308
2023-05-04T09:17:16.430Z,10.6083
2023-05-04T09:18:18.857Z,10.1000
2023-05-04T09:19:21.128Z,10.1231
2023-05-04T09:20:23.484Z,9.8385
2023-05-04T09:21:25.873Z,10.5385
2023-05-04T09:22:28.801Z,9.4077
2023-05-04T09:23:30.571Z,10.2583
2023-05-04T09:24:32.895Z,10.1077
2023-05-04T09:25:35.226Z,9.7846
2023-05-04T09:26:37.586Z,9.4846
2023-05-04T09:27:39.919Z,9.9231
2023-05-04T09:28:42.263Z,10.7769
2023-05-04T09:29:44.629Z,9.8538
2023-05-04T09:30:47.061Z,10.7231
2023-05-04T09:31:49.306Z,9.6462
2023-05-04T09:32:51.674Z,10.9615
2023-05-04T09:33:54.007Z,9.4308
2023-05-04T09:34:56.354Z,9.3538
2023-05-04T09:35:58.721Z,9.8385
2023-05-04T09:37:01.054Z,10.3000
2023-05-04T09:38:03.407Z,10.3692
2023-05-04T09:39:05.764Z,10.7385
2023-05-04T09:40:08.117Z,9.1077
2023-05-04T09:41:10.473Z,9.3615
2023-05-04T09:42:12.809Z,9.4923
2023-05-04T09:43:15.151Z,11.4077
2023-05-04T09:44:17.501Z,10.1385
2023-05-04T09:45:19.862Z,9.5231
2023-05-04T09:46:22.225Z,9.7077
2023-05-04T09:47:24.579Z,11.2077
2023-05-04T09:48:26.986Z,10.9769
2023-05-04T09:49:29.242Z,11.3000
2023-05-04T09:50:31.601Z,9.5308
2023-05-04T09:51:33.956Z,8.7231
2023-05-04T09:52:36.291Z,12.6615
2023-05-04T09:53:38.636Z,10.6923
2023-05-04T09:54:40.992Z,9.2538
2023-05-04T09:55:43.337Z,9.0769
2023-05-04T09:56:45.727Z,10.3923
2023-05-04T09:57:48.150Z,10.0846
2023-05-04T09:58:50.399Z,9.6385
2023-05-04T09:59:52.739Z,9.9077
2023-05-04T10:00:55.092Z,9.9923
2023-05-04T10:02:00.398Z,9.2615
2023-05-04T10:02:59.813Z,8.8636
2023-05-04T10:04:02.158Z,9.2846
2023-05-04T10:05:04.702Z,10.1077
2023-05-04T10:06:06.846Z,9.4833
2023-05-04T10:07:09.226Z,9.5692
2023-05-04T10:08:11.549Z,10.6923
2023-05-04T10:09:13.914Z,9.7231
2023-05-04T10:10:16.265Z,9.0615
2023-05-04T10:11:18.632Z,8.9231
2023-05-04T10:12:21.003Z,9.2615
2023-05-04T10:13:23.333Z,9.3538
2023-05-04T10:14:25.682Z,9.0615
2023-05-04T10:15:28.041Z,8.7154
2023-05-04T10:16:30.494Z,9.0308
2023-05-04T10:17:32.778Z,8.8167
2023-05-04T10:18:35.092Z,10.3923
2023-05-04T10:19:37.461Z,10.5769
2023-05-04T10:20:39.804Z,8.6615
2023-05-04T10:21:42.169Z,7.8308
2023-05-04T10:22:44.543Z,9.4923
2023-05-04T10:23:46.876Z,7.8077
2023-05-04T10:24:49.234Z,9.3077
2023-05-04T10:25:51.585Z,9.4538
2023-05-04T10:26:53.945Z,9.4231
2023-05-04T10:27:56.306Z,9.0538
2023-05-04T10:28:58.661Z,7.9077
2023-05-04T10:30:01.018Z,8.0000
2023-05-04T10:31:03.377Z,8.5692
2023-05-04T10:32:05.806Z,8.1462
2023-05-04T10:33:08.190Z,8.5769
2023-05-04T10:34:10.434Z,9.1923
2023-05-04T10:35:12.819Z,8.7231
2023-05-04T10:36:15.152Z,8.7077
2023-05-04T10:37:17.513Z,8.6308
2023-05-04T10:38:19.851Z,8.7692
2023-05-04T10:39:22.220Z,9.2077
2023-05-04T10:40:24.600Z,8.6615
2023-05-04T10:41:26.913Z,9.7462
2023-05-04T10:42:29.271Z,8.7000
2023-05-04T10:43:31.622Z,8.6462
2023-05-04T10:44:33.985Z,8.5615
2023-05-04T10:45:36.388Z,9.5000
2023-05-04T10:46:38.679Z,9.2917
2023-05-04T10:47:41.149Z,8.4538
2023-05-04T10:48:43.377Z,7.9167
2023-05-04T10:49:45.744Z,8.9000
2023-05-04T10:50:48.129Z,8.6923
2023-05-04T10:51:50.435Z,8.6462
2023-05-04T10:52:52.786Z,7.9154
2023-05-04T10:53:55.133Z,8.8538
2023-05-04T10:54:57.486Z,9.5923
2023-05-04T10:55:59.870Z,9.0385
2023-05-04T10:57:02.203Z,9.4923
2023-05-04T10:58:04.553Z,9.2385
2023-05-04T10:59:06.895Z,9.1462
2023-05-04T11:00:09.241Z,9.3231
2023-05-04T11:01:11.644Z,9.9769
2023-05-04T11:02:13.966Z,9.4615
2023-05-04T11:03:16.386Z,9.4923
2023-05-04T11:04:18.650Z,9.2846
2023-05-04T11:05:21.001Z,8.4692
2023-05-04T11:06:24.259Z,7.7000
2023-05-04T11:07:25.708Z,6.2833
2023-05-04T11:08:28.085Z,8.3385
2023-05-04T11:09:30.405Z,9.7077
2023-05-04T11:10:32.758Z,9.5462
2023-05-04T11:11:35.110Z,7.8000
2023-05-04T11:12:37.476Z,8.8231
2023-05-04T11:13:39.825Z,7.9385
2023-05-04T11:14:42.203Z,8.9077
2023-05-04T11:15:44.568Z,9.1154
2023-05-04T11:16:46.939Z,8.5308
2023-05-04T11:17:49.263Z,7.9000
2023-05-04T11:18:51.606Z,8.7923
2023-05-04T11:19:53.923Z,7.1923
2023-05-04T11:20:56.265Z,9.2769
2023-05-04T11:21:58.624Z,9.1231
2023-05-04T11:23:00.965Z,9.4846
2023-05-04T11:24:03.356Z,8.7308
2023-05-04T11:25:05.789Z,10.0000
2023-05-04T11:26:08.356Z,9.4583
2023-05-04T11:27:10.377Z,9.2917
2023-05-04T11:28:14.328Z,9.1385
2023-05-04T11:29:15.094Z,9.0667
2023-05-04T11:30:17.420Z,9.0615
2023-05-04T11:31:19.834Z,8.9923
2023-05-04T11:32:22.120Z,8.4615
2023-05-04T11:33:24.477Z,7.4500
2023-05-04T11:34:26.833Z,8.1462
2023-05-04T11:35:29.172Z,8.6385
2023-05-04T11:36:31.533Z,9.1538
2023-05-04T11:37:33.878Z,9.2692
2023-05-04T11:38:36.240Z,9.3308
2023-05-04T11:39:38.583Z,9.1769
2023-05-04T11:40:41.019Z,9.3385
2023-05-04T11:41:43.309Z,9.3769
2023-05-04T11:42:45.653Z,9.1000
2023-05-04T11:43:48.018Z,8.9154
2023-05-04T11:44:50.365Z,9.7000
2023-05-04T11:45:52.713Z,9.0923
2023-05-04T11:46:55.072Z,9.3538
2023-05-04T11:47:57.492Z,8.0923
2023-05-04T11:48:59.775Z,8.2154
2023-05-04T11:50:02.147Z,8.7615
2023-05-04T11:51:04.493Z,7.4154
2023-05-04T11:52:06.842Z,8.0462
2023-05-04T11:53:09.488Z,8.1615
2023-05-04T11:54:11.555Z,13.2167
2023-05-04T11:55:13.897Z,12.6000
2023-05-04T11:56:16.273Z,9.8154
2023-05-04T11:57:18.615Z,7.8538
2023-05-04T11:58:20.960Z,8.0615
2023-05-04T11:59:23.319Z,8.4538
2023-05-04T12:00:25.673Z,7.1769
2023-05-04T12:01:28.036Z,7.6769
2023-05-04T12:02:30.486Z,7.9385
2023-05-04T12:03:44.035Z,7.9385
2023-05-04T12:04:35.078Z,6.7909
2023-05-04T12:05:37.566Z,7.5077
2023-05-04T12:06:39.792Z,8.6615
2023-05-04T12:07:42.179Z,7.1231
2023-05-04T12:08:44.497Z,7.2846
2023-05-04T12:09:46.839Z,8.4846
2023-05-04T12:10:49.188Z,7.6077
2023-05-04T12:11:51.556Z,7.1769
2023-05-04T12:12:53.952Z,7.1385
2023-05-04T12:13:56.243Z,7.4154
2023-05-04T12:14:58.590Z,6.9615
2023-05-04T12:16:00.962Z,6.7769
2023-05-04T12:17:03.329Z,7.1077
2023-05-04T12:18:05.699Z,7.1769
2023-05-04T12:19:08.098Z,7.2462
2023-05-04T12:20:10.446Z,7.7154
2023-05-04T12:21:12.840Z,6.8846
2023-05-04T12:22:15.167Z,6.4538
2023-05-04T12:23:17.508Z,7.5615
2023-05-04T12:24:19.858Z,7.2462
2023-05-04T12:25:22.219Z,7.2923
2023-05-04T12:26:24.565Z,6.6538
2023-05-04T12:27:26.926Z,6.2308
2023-05-04T12:28:29.278Z,7.3769
2023-05-04T12:29:31.637Z,7.5231
2023-05-04T12:30:34.018Z,6.5462
2023-05-04T12:31:36.410Z,6.1769
2023-05-04T12:32:38.702Z,7.3250
2023-05-04T12:33:41.073Z,7.2923
2023-05-04T12:34:43.446Z,6.0154
2023-05-04T12:35:45.783Z,5.8923
2023-05-04T12:36:48.147Z,6.7154
2023-05-04T12:37:50.480Z,6.1000
2023-05-04T12:38:52.860Z,6.5154
2023-05-04T12:39:55.196Z,7.0462
2023-05-04T12:40:57.580Z,7.5250